Time;durP1;ratioP1;P1;durP2;ratioP2;P2;SDS_P1;SDS_P2;PMS_P1;PMS_P2;Temp;Humidity;BMP_temperature;BMP_pressure;BME280_temperature;BME280_humidity;BME280_pressure;Samples;Min_cycle;Max_cycle;Signal;HPM_P1;HPM_P2
2023/12/06 00:00:50;;;;;;;41.57;23.93;;;0.10;99.90;;;;;;5050781;28;20246;-52
2023/12/06 00:03:16;;;;;;;51.03;24.73;;;0.10;99.90;;;;;;5042839;28;20259;-55
2023/12/06 00:05:43;;;;;;;49.67;24.10;;;0.10;99.90;;;;;;5061540;28;20211;-54
2023/12/06 00:08:10;;;;;;;49.03;24.33;;;0.20;99.90;;;;;;5030161;28;20668;-54
2023/12/06 00:10:37;;;;;;;57.43;25.57;;;0.20;99.90;;;;;;5052161;28;20295;-54
2023/12/06 00:13:03;;;;;;;50.57;25.73;;;0.10;99.90;;;;;;5062606;28;20190;-53
2023/12/06 00:15:32;;;;;;;52.20;25.40;;;0.10;99.90;;;;;;5057480;28;20232;-54
2023/12/06 00:17:59;;;;;;;53.37;27.03;;;0.20;99.90;;;;;;5050097;28;20208;-51
2023/12/06 00:20:26;;;;;;;48.97;25.67;;;0.10;99.90;;;;;;5059015;28;20260;-54
2023/12/06 00:22:53;;;;;;;52.17;24.40;;;0.10;99.90;;;;;;5029470;28;20613;-54
2023/12/06 00:25:20;;;;;;;51.97;25.80;;;0.20;99.90;;;;;;5060611;28;20215;-55
2023/12/06 00:27:47;;;;;;;48.17;24.27;;;0.20;99.90;;;;;;5062398;28;20226;-55
2023/12/06 00:30:14;;;;;;;50.43;25.40;;;0.10;99.90;;;;;;5061295;28;20260;-55
2023/12/06 00:32:42;;;;;;;50.47;24.43;;;0.20;99.90;;;;;;5060901;28;20185;-51
2023/12/06 00:35:20;;;;;;;;;;;;;;;;;;;;;
2023/12/06 00:37:47;;;;;;;48.23;24.87;;;0.20;99.90;;;;;;5053323;28;20289;-53
2023/12/06 00:40:14;;;;;;;53.17;26.63;;;0.20;99.90;;;;;;5028103;28;20218;-51
2023/12/06 00:42:41;;;;;;;55.40;25.97;;;0.30;99.90;;;;;;5060338;28;20214;-52
2023/12/06 00:45:08;;;;;;;49.33;24.50;;;0.30;99.90;;;;;;5062382;28;20198;-51
2023/12/06 00:47:36;;;;;;;48.60;24.87;;;0.30;99.90;;;;;;5057609;28;20227;-53
2023/12/06 00:50:06;;;;;;;48.17;24.20;;;0.20;99.90;;;;;;5041661;28;20190;-51
2023/12/06 00:52:33;;;;;;;47.03;24.17;;;0.30;99.90;;;;;;5060476;28;20251;-52
2023/12/06 00:54:59;;;;;;;46.17;23.23;;;0.20;99.90;;;;;;5025996;28;20213;-54
2023/12/06 00:57:26;;;;;;;49.97;23.77;;;0.20;99.90;;;;;;5061966;28;20272;-53
2023/12/06 00:59:53;;;;;;;45.63;23.67;;;0.30;99.90;;;;;;5058413;28;20194;-51
2023/12/06 01:02:20;;;;;;;46.47;23.30;;;0.30;99.90;;;;;;5062175;28;20215;-55
2023/12/06 01:04:50;;;;;;;48.50;23.57;;;0.30;99.90;;;;;;5043676;28;20202;-53
2023/12/06 01:07:18;;;;;;;50.07;22.80;;;0.30;99.90;;;;;;5061866;28;20231;-51
2023/12/06 01:09:45;;;;;;;46.60;23.73;;;0.30;99.90;;;;;;5021173;28;20888;-54
2023/12/06 01:12:12;;;;;;;47.03;22.53;;;0.30;99.90;;;;;;5062601;28;20630;-53
2023/12/06 01:14:39;;;;;;;51.73;24.03;;;0.30;99.90;;;;;;5059878;28;20197;-55
2023/12/06 01:17:06;;;;;;;46.27;24.07;;;0.30;99.90;;;;;;5060451;28;20278;-53
2023/12/06 01:19:33;;;;;;;44.73;22.43;;;0.30;99.90;;;;;;5057990;28;20194;-52
2023/12/06 01:21:59;;;;;;;48.17;23.47;;;0.30;99.90;;;;;;5052244;28;20222;-55
2023/12/06 01:24:27;;;;;;;46.80;23.53;;;0.30;99.90;;;;;;5034217;28;20675;-52
2023/12/06 01:26:54;;;;;;;44.50;23.03;;;0.30;99.90;;;;;;5058331;28;20234;-53
2023/12/06 01:29:21;;;;;;;47.30;23.33;;;0.40;99.90;;;;;;5060420;28;20186;-54
2023/12/06 01:31:48;;;;;;;43.33;23.80;;;0.30;99.90;;;;;;5057750;28;20222;-50
2023/12/06 01:34:15;;;;;;;41.27;22.53;;;0.40;99.90;;;;;;5061805;28;20727;-50
2023/12/06 01:36:42;;;;;;;47.17;22.83;;;0.30;99.90;;;;;;5044142;28;20279;-53
2023/12/06 01:39:09;;;;;;;43.07;21.90;;;0.30;99.90;;;;;;5029045;28;21432;-52
2023/12/06 01:41:37;;;;;;;49.83;22.60;;;0.40;99.90;;;;;;5060373;28;20250;-52
2023/12/06 01:44:04;;;;;;;42.47;21.63;;;0.40;99.90;;;;;;5056065;28;20303;-54
2023/12/06 01:46:31;;;;;;;45.83;24.03;;;0.40;99.90;;;;;;5060911;28;20971;-53
2023/12/06 01:49:00;;;;;;;51.90;24.40;;;0.30;99.90;;;;;;5058621;28;20191;-51
2023/12/06 01:51:27;;;;;;;46.13;23.20;;;0.30;99.90;;;;;;5061246;28;20264;-53
2023/12/06 01:53:54;;;;;;;47.47;23.57;;;0.40;99.90;;;;;;5042533;28;20487;-54
2023/12/06 01:56:21;;;;;;;48.87;25.03;;;0.30;99.90;;;;;;5034468;28;20307;-54
2023/12/06 01:58:50;;;;;;;51.33;23.93;;;0.40;99.90;;;;;;5057624;28;20191;-52
2023/12/06 02:01:17;;;;;;;49.63;23.67;;;0.40;99.90;;;;;;5061559;28;20757;-52
2023/12/06 02:03:44;;;;;;;50.10;24.23;;;0.30;99.90;;;;;;5058476;28;20252;-52
2023/12/06 02:06:11;;;;;;;48.83;25.20;;;0.40;99.90;;;;;;5061109;28;20622;-55
2023/12/06 02:08:40;;;;;;;48.27;25.43;;;0.40;99.90;;;;;;5049254;28;20245;-53
2023/12/06 02:11:07;;;;;;;49.87;22.23;;;0.40;99.90;;;;;;5033466;28;20438;-53
2023/12/06 02:13:34;;;;;;;49.27;24.47;;;0.30;99.90;;;;;;5060130;28;20212;-52
2023/12/06 02:16:04;;;;;;;60.43;26.13;;;0.40;99.90;;;;;;5058488;28;20214;-53
2023/12/06 02:18:31;;;;;;;54.60;27.20;;;0.30;99.90;;;;;;5047074;28;20236;-54
2023/12/06 02:20:59;;;;;;;51.70;25.40;;;0.30;99.90;;;;;;5060583;28;20214;-52
2023/12/06 02:23:31;;;;;;;54.40;26.20;;;0.30;99.90;;;;;;5050300;28;20599;-54
2023/12/06 02:26:00;;;;;;;52.73;25.43;;;0.30;99.90;;;;;;5063214;28;20284;-54
2023/12/06 02:28:27;;;;;;;54.93;25.93;;;0.40;99.90;;;;;;5033990;28;20330;-51
2023/12/06 02:30:53;;;;;;;60.90;26.87;;;0.30;99.90;;;;;;5064933;28;20560;-51
2023/12/06 02:33:21;;;;;;;53.70;26.33;;;0.40;99.90;;;;;;5062644;28;20195;-54
2023/12/06 02:35:51;;;;;;;58.30;26.93;;;0.40;99.90;;;;;;5062161;28;20291;-52
2023/12/06 02:38:20;;;;;;;54.07;27.43;;;0.40;99.90;;;;;;5051206;28;20283;-53
2023/12/06 02:40:48;;;;;;;53.83;24.23;;;0.30;99.90;;;;;;5062496;28;20292;-53
2023/12/06 02:43:17;;;;;;;53.33;27.13;;;0.40;99.90;;;;;;5035128;28;20209;-51
2023/12/06 02:45:44;;;;;;;54.53;25.90;;;0.30;99.90;;;;;;5061717;28;20755;-55
2023/12/06 02:48:11;;;;;;;55.17;26.73;;;0.40;99.90;;;;;;5064740;28;20210;-53
2023/12/06 02:50:38;;;;;;;54.00;25.50;;;0.40;99.90;;;;;;5060623;28;20236;-55
2023/12/06 02:53:05;;;;;;;59.80;27.37;;;0.40;99.90;;;;;;5064645;28;20207;-55
2023/12/06 02:55:31;;;;;;;58.97;26.07;;;0.40;99.90;;;;;;5043645;28;20250;-51
2023/12/06 02:57:58;;;;;;;55.50;26.40;;;0.40;99.90;;;;;;5038844;28;20677;-53
2023/12/06 03:00:26;;;;;;;51.03;25.10;;;0.40;99.90;;;;;;5061804;28;20187;-51
2023/12/06 03:02:53;;;;;;;50.23;26.70;;;0.40;99.90;;;;;;5061370;28;20211;-54
2023/12/06 03:05:20;;;;;;;52.47;26.53;;;0.40;99.90;;;;;;5062367;28;20233;-50
2023/12/06 03:07:47;;;;;;;52.00;26.17;;;0.50;99.90;;;;;;5062367;28;20256;-54
2023/12/06 03:10:13;;;;;;;52.67;27.57;;;0.40;99.90;;;;;;5052266;28;20255;-51
2023/12/06 03:12:40;;;;;;;54.50;27.23;;;0.50;99.90;;;;;;5033464;28;22040;-50
2023/12/06 03:15:08;;;;;;;51.33;26.03;;;0.40;99.90;;;;;;5059346;28;20203;-53
2023/12/06 03:17:36;;;;;;;52.67;26.23;;;0.50;99.90;;;;;;5056569;28;20271;-51
2023/12/06 03:20:06;;;;;;;53.17;25.23;;;0.40;99.90;;;;;;5053921;28;20240;-53
2023/12/06 03:22:33;;;;;;;54.33;25.83;;;0.40;99.90;;;;;;5057281;28;20240;-52
2023/12/06 03:25:00;;;;;;;49.60;25.13;;;0.40;99.90;;;;;;5063488;28;20251;-55
2023/12/06 03:27:27;;;;;;;55.87;27.80;;;0.40;99.90;;;;;;5041256;28;20572;-51
2023/12/06 03:29:54;;;;;;;55.73;27.77;;;0.40;99.90;;;;;;5029842;28;20203;-50
2023/12/06 03:32:21;;;;;;;52.47;26.70;;;0.40;99.90;;;;;;5061230;28;20187;-52
2023/12/06 03:34:49;;;;;;;53.97;26.10;;;0.50;99.90;;;;;;5061772;28;20210;-52
2023/12/06 03:37:16;;;;;;;49.57;26.43;;;0.50;99.90;;;;;;5062521;28;20287;-51
2023/12/06 03:39:42;;;;;;;55.60;27.00;;;0.50;99.90;;;;;;5060860;28;20850;-48
2023/12/06 03:42:09;;;;;;;57.20;27.17;;;0.50;99.90;;;;;;5049293;28;20245;-52
2023/12/06 03:44:36;;;;;;;53.03;26.93;;;0.50;99.90;;;;;;5031384;28;20212;-52
2023/12/06 03:47:03;;;;;;;59.97;28.23;;;0.50;99.90;;;;;;5063838;28;20643;-53
2023/12/06 03:49:30;;;;;;;54.67;26.33;;;0.50;99.90;;;;;;5059075;28;20621;-50
2023/12/06 03:51:58;;;;;;;54.63;26.67;;;0.50;99.90;;;;;;5063630;28;20277;-51
2023/12/06 03:54:25;;;;;;;62.27;29.07;;;0.50;99.90;;;;;;5060600;28;20795;-52
2023/12/06 03:56:51;;;;;;;65.87;28.90;;;0.50;99.90;;;;;;5045763;28;20319;-49
2023/12/06 03:59:18;;;;;;;56.57;27.50;;;0.50;99.90;;;;;;5062349;28;20240;-53
2023/12/06 04:01:45;;;;;;;59.80;29.10;;;0.60;99.90;;;;;;5028043;28;20431;-54
2023/12/06 04:04:12;;;;;;;61.67;28.53;;;0.50;99.90;;;;;;5063321;28;20210;-53
2023/12/06 04:06:39;;;;;;;53.17;26.90;;;0.50;99.90;;;;;;5059715;28;20284;-54
2023/12/06 04:09:07;;;;;;;57.00;26.07;;;0.50;99.90;;;;;;5063494;28;20195;-52
2023/12/06 04:11:34;;;;;;;58.67;27.70;;;0.50;99.90;;;;;;5045817;28;21273;-50
2023/12/06 04:14:01;;;;;;;59.13;27.77;;;0.50;99.90;;;;;;5063655;28;20186;-56
2023/12/06 04:16:30;;;;;;;62.37;29.37;;;0.50;99.90;;;;;;5034866;28;20237;-53
2023/12/06 04:18:57;;;;;;;66.40;30.63;;;0.50;99.90;;;;;;5056875;28;20203;-54
2023/12/06 04:21:24;;;;;;;62.50;27.43;;;0.50;99.90;;;;;;5060767;28;20284;-50
2023/12/06 04:23:50;;;;;;;58.97;28.97;;;0.50;99.90;;;;;;5061697;28;20206;-55
2023/12/06 04:26:18;;;;;;;59.40;27.07;;;0.50;99.90;;;;;;5055707;28;20271;-49
2023/12/06 04:28:45;;;;;;;57.47;28.47;;;0.50;99.90;;;;;;5051604;28;20268;-55
2023/12/06 04:31:12;;;;;;;56.70;28.30;;;0.50;99.90;;;;;;5059778;28;20255;-52
2023/12/06 04:33:40;;;;;;;61.97;27.77;;;0.50;99.90;;;;;;5029138;28;20407;-52
2023/12/06 04:36:07;;;;;;;61.50;28.37;;;0.50;99.90;;;;;;5050052;28;20219;-52
2023/12/06 04:38:34;;;;;;;59.53;28.53;;;0.60;99.90;;;;;;5058759;28;20186;-51
2023/12/06 04:41:01;;;;;;;60.50;28.47;;;0.60;99.90;;;;;;5061525;28;20198;-52
2023/12/06 04:43:29;;;;;;;59.33;28.67;;;0.60;99.90;;;;;;5047054;28;20260;-53
2023/12/06 04:45:56;;;;;;;63.70;28.77;;;0.60;99.90;;;;;;5061493;28;20238;-54
2023/12/06 04:48:23;;;;;;;58.67;28.30;;;0.50;99.90;;;;;;5031128;28;20206;-55
2023/12/06 04:50:49;;;;;;;58.17;28.83;;;0.60;99.90;;;;;;5048849;28;20206;-54
2023/12/06 04:53:16;;;;;;;66.00;29.67;;;0.60;99.90;;;;;;5049854;28;20221;-55
2023/12/06 04:55:43;;;;;;;63.20;29.23;;;0.60;99.90;;;;;;5053377;28;20272;-50
2023/12/06 04:58:10;;;;;;;60.20;27.60;;;0.50;99.90;;;;;;5042128;28;20696;-50
2023/12/06 05:00:38;;;;;;;60.13;28.20;;;0.50;99.90;;;;;;5058288;28;20665;-53
2023/12/06 05:03:05;;;;;;;65.77;29.13;;;0.60;99.90;;;;;;5042560;28;20647;-51
2023/12/06 05:05:32;;;;;;;58.23;29.57;;;0.60;99.90;;;;;;5046343;28;20212;-53
2023/12/06 05:07:59;;;;;;;66.57;30.37;;;0.60;99.90;;;;;;5051604;28;20286;-53
2023/12/06 05:10:25;;;;;;;67.33;29.40;;;0.60;99.90;;;;;;5055237;28;20202;-54
2023/12/06 05:12:52;;;;;;;56.40;28.13;;;0.60;99.90;;;;;;5041908;28;21258;-53
2023/12/06 05:15:19;;;;;;;66.47;30.37;;;0.60;99.90;;;;;;5051870;28;20287;-51
2023/12/06 05:17:47;;;;;;;60.10;28.13;;;0.60;99.90;;;;;;5053931;28;20311;-51
2023/12/06 05:20:14;;;;;;;62.67;28.30;;;0.60;99.90;;;;;;5028400;28;20271;-53
2023/12/06 05:22:41;;;;;;;60.80;29.37;;;0.60;99.90;;;;;;5036791;28;21057;-52
2023/12/06 05:25:08;;;;;;;60.57;29.27;;;0.60;99.90;;;;;;5059472;28;20606;-50
2023/12/06 05:27:35;;;;;;;63.70;28.47;;;0.60;99.90;;;;;;5048667;28;20239;-51
2023/12/06 05:30:02;;;;;;;62.10;28.73;;;0.60;99.90;;;;;;5039067;28;20287;-54
2023/12/06 05:32:29;;;;;;;64.00;27.60;;;0.60;99.90;;;;;;5048381;28;20587;-51
2023/12/06 05:34:57;;;;;;;63.43;30.03;;;0.60;99.90;;;;;;5030643;28;20214;-55
2023/12/06 05:37:24;;;;;;;56.30;28.37;;;0.60;99.90;;;;;;5043948;28;20493;-53
2023/12/06 05:39:51;;;;;;;69.10;32.43;;;0.60;99.90;;;;;;5053192;28;20974;-51
2023/12/06 05:42:17;;;;;;;61.63;29.27;;;0.60;99.90;;;;;;5058779;28;20276;-54
2023/12/06 05:44:44;;;;;;;63.27;29.17;;;0.60;99.90;;;;;;5028226;28;20356;-52
2023/12/06 05:47:11;;;;;;;72.37;30.90;;;0.60;99.90;;;;;;5059263;28;20210;-51
2023/12/06 05:49:38;;;;;;;64.43;29.83;;;0.60;99.90;;;;;;5057109;28;20562;-52
2023/12/06 05:52:07;;;;;;;64.50;29.20;;;0.60;99.90;;;;;;5021976;28;20234;-52
2023/12/06 05:54:33;;;;;;;60.23;27.97;;;0.60;99.90;;;;;;5043325;28;20840;-54
2023/12/06 05:57:00;;;;;;;64.57;30.00;;;0.60;99.90;;;;;;5063217;28;20703;-55
2023/12/06 05:59:27;;;;;;;59.93;27.83;;;0.70;99.90;;;;;;5047435;28;20202;-53
2023/12/06 06:01:54;;;;;;;68.33;29.30;;;0.70;99.90;;;;;;5058448;28;20442;-52
2023/12/06 06:04:21;;;;;;;68.37;31.27;;;0.70;99.90;;;;;;5062513;28;20226;-52
2023/12/06 06:06:48;;;;;;;64.87;29.37;;;0.70;99.90;;;;;;5030802;28;20235;-55
2023/12/06 06:09:16;;;;;;;64.83;29.67;;;0.70;99.90;;;;;;5052114;28;20220;-52
2023/12/06 06:11:43;;;;;;;60.33;30.17;;;0.70;99.90;;;;;;5055417;28;21546;-54
2023/12/06 06:14:10;;;;;;;64.50;31.33;;;0.70;99.90;;;;;;5040576;28;20221;-52
2023/12/06 06:16:37;;;;;;;65.50;30.97;;;0.70;99.90;;;;;;5048452;28;20227;-53
2023/12/06 06:19:04;;;;;;;69.37;30.47;;;0.60;99.90;;;;;;5058497;28;20206;-54
2023/12/06 06:21:31;;;;;;;72.43;32.53;;;0.60;99.90;;;;;;5060856;28;20211;-54
2023/12/06 06:23:57;;;;;;;79.33;33.57;;;0.60;99.90;;;;;;5019595;28;20229;-52
2023/12/06 06:26:26;;;;;;;72.53;31.40;;;0.60;99.90;;;;;;5063133;28;20249;-52
2023/12/06 06:28:52;;;;;;;67.57;32.37;;;0.60;99.90;;;;;;5052797;28;20194;-54
2023/12/06 06:31:19;;;;;;;68.63;30.73;;;0.60;99.90;;;;;;5048266;28;20675;-54
2023/12/06 06:33:46;;;;;;;81.63;33.57;;;0.70;99.90;;;;;;5057713;28;20834;-54
2023/12/06 06:36:13;;;;;;;74.53;32.57;;;0.60;99.90;;;;;;5055049;28;21033;-54
2023/12/06 06:38:42;;;;;;;69.53;30.37;;;0.60;99.90;;;;;;5028373;28;20214;-53
2023/12/06 06:41:09;;;;;;;76.83;32.47;;;0.60;99.90;;;;;;5057822;28;20997;-52
2023/12/06 06:43:37;;;;;;;72.03;30.80;;;0.70;99.90;;;;;;5062210;28;20246;-54
2023/12/06 06:46:04;;;;;;;72.83;32.30;;;0.70;99.90;;;;;;5040804;28;21010;-55
2023/12/06 06:48:32;;;;;;;73.20;32.07;;;0.70;99.90;;;;;;5061642;28;20272;-53
2023/12/06 06:50:58;;;;;;;76.97;33.47;;;0.70;99.90;;;;;;5059163;28;20198;-53
2023/12/06 06:53:25;;;;;;;78.17;33.40;;;0.70;99.90;;;;;;5030013;28;20202;-53
2023/12/06 06:55:53;;;;;;;73.93;32.33;;;0.70;99.90;;;;;;5052396;28;20283;-54
2023/12/06 06:58:20;;;;;;;81.73;35.50;;;0.70;99.90;;;;;;5059521;28;20677;-52
2023/12/06 07:00:48;;;;;;;78.23;33.17;;;0.70;99.90;;;;;;5034474;28;20203;-52
2023/12/06 07:03:15;;;;;;;74.57;33.00;;;0.70;99.90;;;;;;5051886;28;20261;-52
2023/12/06 07:05:42;;;;;;;79.73;34.20;;;0.70;99.90;;;;;;5047210;28;20284;-54
2023/12/06 07:08:09;;;;;;;75.63;32.47;;;0.70;99.90;;;;;;5027621;28;20336;-54
2023/12/06 07:10:38;;;;;;;73.83;32.67;;;0.70;99.90;;;;;;5050911;28;20275;-52
2023/12/06 07:13:05;;;;;;;89.47;36.37;;;0.70;99.90;;;;;;5041406;28;20203;-51
2023/12/06 07:15:34;;;;;;;81.17;33.20;;;0.70;99.90;;;;;;5056730;28;20218;-53
2023/12/06 07:18:03;;;;;;;93.17;33.73;;;0.70;99.90;;;;;;5041402;28;20203;-53
2023/12/06 07:20:30;;;;;;;84.63;34.73;;;0.70;99.90;;;;;;5049659;28;20260;-51
2023/12/06 07:22:58;;;;;;;78.30;32.90;;;0.70;99.90;;;;;;5062613;28;20218;-53
2023/12/06 07:25:25;;;;;;;82.37;34.03;;;0.70;99.90;;;;;;5022410;28;20231;-54
2023/12/06 07:27:52;;;;;;;76.60;34.67;;;0.70;99.90;;;;;;5045214;28;20307;-50
2023/12/06 07:30:19;;;;;;;81.97;34.30;;;0.70;99.90;;;;;;5058957;28;20641;-53
2023/12/06 07:32:46;;;;;;;80.47;33.63;;;0.70;99.90;;;;;;5050810;28;20275;-53
2023/12/06 07:35:14;;;;;;;82.93;34.50;;;0.70;99.90;;;;;;5037468;28;20307;-53
2023/12/06 07:37:41;;;;;;;84.63;36.37;;;0.70;99.90;;;;;;5053485;28;20259;-53
2023/12/06 07:40:11;;;;;;;88.30;35.83;;;0.70;99.90;;;;;;5028096;28;20231;-49
2023/12/06 07:42:38;;;;;;;83.07;34.60;;;0.70;99.90;;;;;;5039145;28;20616;-55
2023/12/06 07:45:06;;;;;;;81.57;33.00;;;0.80;99.90;;;;;;5058018;28;20209;-54
2023/12/06 07:47:32;;;;;;;88.27;35.70;;;0.80;99.90;;;;;;5059902;28;20252;-51
2023/12/06 07:49:59;;;;;;;88.67;34.97;;;0.70;99.90;;;;;;5038123;28;20206;-51
2023/12/06 07:52:28;;;;;;;90.53;37.40;;;0.70;99.90;;;;;;5053195;28;20420;-52
2023/12/06 07:54:55;;;;;;;76.20;32.63;;;0.70;99.90;;;;;;5052865;28;20618;-54
2023/12/06 07:57:23;;;;;;;81.47;35.50;;;0.70;99.90;;;;;;5014216;28;20297;-54
2023/12/06 07:59:50;;;;;;;83.00;36.27;;;0.70;99.90;;;;;;5060494;28;20607;-54
2023/12/06 08:02:17;;;;;;;87.17;34.80;;;0.70;99.90;;;;;;5057285;28;20910;-54
2023/12/06 08:04:43;;;;;;;83.33;34.23;;;0.70;99.90;;;;;;5042745;28;20260;-55
2023/12/06 08:07:10;;;;;;;84.07;35.77;;;0.70;99.90;;;;;;5051117;28;20222;-51
2023/12/06 08:09:39;;;;;;;83.80;34.73;;;0.70;99.90;;;;;;5060419;28;20649;-54
2023/12/06 08:12:07;;;;;;;90.07;35.90;;;0.70;99.90;;;;;;5027074;28;20217;-53
2023/12/06 08:14:34;;;;;;;94.30;36.10;;;0.70;99.90;;;;;;5038994;28;20216;-51
2023/12/06 08:17:01;;;;;;;87.70;33.77;;;0.70;99.90;;;;;;5056921;28;20708;-52
2023/12/06 08:19:28;;;;;;;89.90;36.33;;;0.70;99.90;;;;;;5034296;28;20932;-51
2023/12/06 08:21:55;;;;;;;94.93;35.80;;;0.80;99.90;;;;;;5054974;28;20222;-54
2023/12/06 08:24:22;;;;;;;97.43;36.80;;;0.80;99.90;;;;;;5048898;28;20211;-50
2023/12/06 08:26:52;;;;;;;94.63;36.60;;;0.70;99.90;;;;;;5056445;28;20218;-53
2023/12/06 08:29:18;;;;;;;89.23;35.87;;;0.80;99.90;;;;;;5020325;28;20291;-53
2023/12/06 08:31:46;;;;;;;86.80;35.07;;;0.70;99.90;;;;;;5057138;28;20226;-54
2023/12/06 08:34:12;;;;;;;98.40;36.70;;;0.70;99.90;;;;;;5048796;28;20317;-55
2023/12/06 08:36:39;;;;;;;96.23;37.33;;;0.70;99.90;;;;;;5052323;28;20222;-54
2023/12/06 08:39:06;;;;;;;92.93;37.40;;;0.70;99.90;;;;;;5049381;28;20249;-52
2023/12/06 08:41:33;;;;;;;101.20;40.07;;;0.70;99.90;;;;;;5060359;28;20273;-52
2023/12/06 08:44:04;;;;;;;98.53;36.67;;;0.70;99.90;;;;;;5011214;28;20553;-52
2023/12/06 08:46:31;;;;;;;90.97;36.03;;;0.70;99.90;;;;;;5058447;28;20217;-51
2023/12/06 08:48:58;;;;;;;86.53;35.10;;;0.80;99.90;;;;;;5056091;28;20199;-53
2023/12/06 08:51:25;;;;;;;86.33;36.50;;;0.80;99.90;;;;;;5042995;28;20213;-51
2023/12/06 08:53:52;;;;;;;96.67;37.10;;;0.80;99.90;;;;;;5059347;28;20703;-52
2023/12/06 08:56:19;;;;;;;93.03;35.87;;;0.80;99.90;;;;;;5050708;28;20214;-52
2023/12/06 08:58:45;;;;;;;83.37;35.27;;;0.80;99.90;;;;;;5027219;28;20245;-51
2023/12/06 09:01:14;;;;;;;86.10;36.07;;;0.80;99.90;;;;;;5038822;28;20186;-50
2023/12/06 09:03:40;;;;;;;89.23;36.93;;;0.80;99.90;;;;;;5058665;28;20709;-52
2023/12/06 09:06:08;;;;;;;88.63;37.20;;;0.90;99.90;;;;;;5039417;28;20218;-53
2023/12/06 09:08:35;;;;;;;92.80;37.03;;;0.80;99.90;;;;;;5061698;28;20278;-50
2023/12/06 09:11:03;;;;;;;101.40;37.23;;;0.90;99.90;;;;;;5053734;28;20240;-50
2023/12/06 09:13:30;;;;;;;95.37;37.13;;;0.90;99.90;;;;;;5028118;28;20203;-55
2023/12/06 09:15:57;;;;;;;92.60;36.53;;;0.90;99.90;;;;;;5043283;28;20250;-54
2023/12/06 09:18:25;;;;;;;92.13;35.20;;;0.90;99.90;;;;;;5056061;28;20897;-51
2023/12/06 09:20:53;;;;;;;96.07;39.00;;;0.90;99.90;;;;;;5051288;28;20274;-53
2023/12/06 09:23:20;;;;;;;85.37;35.73;;;0.90;99.90;;;;;;5046713;28;20206;-51
2023/12/06 09:25:47;;;;;;;88.07;36.70;;;0.90;99.90;;;;;;5058103;28;20232;-52
2023/12/06 09:28:14;;;;;;;83.60;35.47;;;0.90;99.90;;;;;;5049250;28;20191;-52
2023/12/06 09:30:41;;;;;;;91.80;37.00;;;0.90;99.90;;;;;;5030058;28;20260;-53
2023/12/06 09:33:09;;;;;;;97.73;37.87;;;0.90;99.90;;;;;;5042470;28;20942;-54
2023/12/06 09:35:38;;;;;;;89.63;34.60;;;0.90;99.90;;;;;;5059348;28;20226;-53
2023/12/06 09:38:04;;;;;;;85.20;37.17;;;1.00;99.90;;;;;;5048823;28;20332;-55
2023/12/06 09:40:31;;;;;;;94.17;36.27;;;1.00;99.90;;;;;;5059031;28;20253;-54
2023/12/06 09:43:02;;;;;;;100.47;38.33;;;1.00;99.90;;;;;;5050289;28;20218;-53
2023/12/06 09:45:30;;;;;;;85.87;35.87;;;1.00;99.90;;;;;;5030327;28;20275;-54
2023/12/06 09:47:57;;;;;;;86.33;35.70;;;1.00;99.90;;;;;;5036740;28;20210;-53
2023/12/06 09:50:25;;;;;;;85.30;34.67;;;1.00;99.90;;;;;;5056957;28;20840;-55
2023/12/06 09:52:54;;;;;;;92.30;35.93;;;1.00;99.90;;;;;;5043977;28;20222;-54
2023/12/06 09:55:24;;;;;;;91.27;37.93;;;1.00;99.90;;;;;;5057146;28;20219;-53
2023/12/06 09:57:51;;;;;;;93.30;37.00;;;1.00;99.90;;;;;;5051216;28;20951;-54
2023/12/06 10:00:18;;;;;;;95.57;37.83;;;1.00;99.90;;;;;;5026531;28;20203;-54
2023/12/06 10:02:51;;;;;;;100.90;37.23;;;1.00;99.90;;;;;;5045468;28;20696;-52
2023/12/06 10:05:18;;;;;;;90.10;36.77;;;1.00;99.90;;;;;;5055893;28;20837;-53
2023/12/06 10:07:46;;;;;;;93.77;37.63;;;1.00;99.90;;;;;;5045378;28;20206;-55
2023/12/06 10:10:20;;;;;;;95.13;37.63;;;1.10;99.90;;;;;;5057209;28;20202;-51
2023/12/06 10:12:48;;;;;;;93.40;37.47;;;1.00;99.90;;;;;;5056200;28;20637;-52
2023/12/06 10:15:16;;;;;;;93.30;37.30;;;1.10;99.90;;;;;;5019703;28;20955;-52
2023/12/06 10:17:43;;;;;;;94.90;36.57;;;1.10;99.90;;;;;;5056842;28;20198;-51
2023/12/06 10:20:10;;;;;;;98.33;37.93;;;1.10;99.90;;;;;;5028509;28;20206;-51
2023/12/06 10:22:37;;;;;;;94.63;37.53;;;1.10;99.90;;;;;;5051506;28;20194;-52
2023/12/06 10:25:06;;;;;;;88.03;35.57;;;1.20;99.90;;;;;;5035848;28;20389;-54
2023/12/06 10:27:36;;;;;;;97.17;37.83;;;1.10;99.90;;;;;;5050535;28;20211;-54
2023/12/06 10:30:04;;;;;;;94.43;36.60;;;1.20;99.90;;;;;;5037529;28;20211;-54
2023/12/06 10:32:32;;;;;;;91.97;37.97;;;1.20;99.90;;;;;;5023922;28;20241;-53
2023/12/06 10:35:00;;;;;;;94.40;37.67;;;1.20;99.90;;;;;;5031676;28;20203;-53
2023/12/06 10:37:28;;;;;;;88.93;36.70;;;1.20;99.90;;;;;;5047821;28;20199;-50
2023/12/06 10:40:00;;;;;;;100.67;39.10;;;1.20;99.90;;;;;;5044229;28;20260;-52
2023/12/06 10:42:33;;;;;;;97.07;38.90;;;1.30;99.90;;;;;;5049896;28;20675;-51
2023/12/06 10:45:03;;;;;;;95.73;36.93;;;1.20;99.90;;;;;;5043723;28;20218;-53
2023/12/06 10:47:30;;;;;;;93.43;36.87;;;1.20;99.90;;;;;;5017550;28;20211;-53
2023/12/06 10:49:58;;;;;;;96.50;38.23;;;1.20;99.90;;;;;;5031607;28;20203;-51
2023/12/06 10:52:25;;;;;;;104.33;39.50;;;1.20;99.90;;;;;;5043287;28;20226;-52
2023/12/06 10:54:55;;;;;;;101.43;38.07;;;1.30;99.90;;;;;;5050133;28;20665;-53
2023/12/06 10:57:22;;;;;;;102.27;40.50;;;1.30;99.90;;;;;;5060972;28;20253;-51
2023/12/06 10:59:49;;;;;;;101.47;38.90;;;1.30;99.90;;;;;;5050601;28;20203;-53
2023/12/06 11:02:18;;;;;;;95.83;36.63;;;1.30;99.90;;;;;;5024295;28;25403;-52
2023/12/06 11:04:49;;;;;;;88.67;36.37;;;1.30;99.90;;;;;;5052316;28;20215;-51
2023/12/06 11:07:32;;;;;;;96.37;38.53;;;1.30;99.90;;;;;;5040837;28;20225;-54
2023/12/06 11:10:09;;;;;;;104.23;39.63;;;1.30;99.90;;;;;;5032363;28;20235;-53
2023/12/06 11:12:46;;;;;;;107.90;40.40;;;1.30;99.90;;;;;;5039573;28;20888;-52
2023/12/06 11:15:24;;;;;;;96.97;37.17;;;1.30;99.90;;;;;;5047119;28;20605;-54
2023/12/06 11:18:04;;;;;;;97.67;37.90;;;1.30;99.90;;;;;;5017086;28;20211;-53
2023/12/06 11:20:32;;;;;;;97.10;38.97;;;1.30;99.90;;;;;;5058307;28;20279;-55
2023/12/06 11:22:59;;;;;;;90.47;38.10;;;1.30;99.90;;;;;;5025503;28;20700;-49
2023/12/06 11:25:26;;;;;;;101.53;37.57;;;1.30;99.90;;;;;;5041616;28;20243;-52
2023/12/06 11:27:54;;;;;;;109.70;39.37;;;1.30;99.90;;;;;;5040113;28;20802;-53
2023/12/06 11:30:22;;;;;;;98.73;38.10;;;1.30;99.90;;;;;;5050787;28;20249;-50
2023/12/06 11:32:56;;;;;;;97.13;39.00;;;1.30;99.90;;;;;;5029448;28;20241;-50
2023/12/06 11:35:25;;;;;;;98.03;39.23;;;1.30;99.90;;;;;;5032968;28;20221;-50
2023/12/06 11:37:53;;;;;;;103.90;39.83;;;1.30;99.90;;;;;;5037314;28;20926;-50
2023/12/06 11:40:23;;;;;;;101.30;38.67;;;1.20;99.90;;;;;;5048624;28;20244;-53
2023/12/06 11:42:57;;;;;;;95.27;38.87;;;1.30;99.90;;;;;;5041126;28;20280;-54
2023/12/06 11:45:28;;;;;;;106.50;39.00;;;1.20;99.90;;;;;;5043068;28;20260;-49
2023/12/06 11:47:58;;;;;;;100.57;38.23;;;1.20;99.90;;;;;;5035176;28;20292;-50
2023/12/06 11:50:26;;;;;;;102.30;38.93;;;1.20;99.90;;;;;;5019786;28;20255;-53
2023/12/06 11:52:54;;;;;;;104.83;37.63;;;1.30;99.90;;;;;;5031212;28;20194;-49
2023/12/06 11:55:24;;;;;;;95.87;37.17;;;1.30;99.90;;;;;;5033173;28;20794;-51
2023/12/06 11:58:02;;;;;;;102.40;39.70;;;1.30;99.90;;;;;;5049009;28;20203;-50
2023/12/06 12:00:30;;;;;;;105.33;39.23;;;1.30;99.90;;;;;;4993535;28;20256;-51
2023/12/06 12:03:00;;;;;;;100.20;39.30;;;1.30;99.90;;;;;;5050863;28;20286;-52
2023/12/06 12:05:27;;;;;;;89.57;36.43;;;1.30;99.90;;;;;;5020374;28;20202;-53
2023/12/06 12:07:54;;;;;;;98.53;37.63;;;1.40;99.90;;;;;;5038841;28;20253;-52
2023/12/06 12:10:21;;;;;;;100.37;38.70;;;1.30;99.90;;;;;;5060152;28;20260;-53
2023/12/06 12:12:49;;;;;;;104.70;37.30;;;1.30;99.90;;;;;;5048070;28;20207;-51
2023/12/06 12:15:16;;;;;;;100.20;38.37;;;1.30;99.90;;;;;;5054098;28;20677;-51
2023/12/06 12:17:44;;;;;;;87.57;38.90;;;1.30;99.90;;;;;;5052325;28;20221;-51
2023/12/06 12:20:13;;;;;;;95.17;38.47;;;1.30;99.90;;;;;;5032103;28;20198;-48
2023/12/06 12:22:45;;;;;;;89.70;36.60;;;1.30;99.90;;;;;;5035466;28;20203;-50
2023/12/06 12:25:12;;;;;;;92.70;38.17;;;1.30;99.90;;;;;;5059164;28;20222;-49
2023/12/06 12:27:39;;;;;;;103.73;39.83;;;1.30;99.90;;;;;;5055375;28;20264;-52
2023/12/06 12:30:09;;;;;;;97.97;38.83;;;1.30;99.90;;;;;;5053512;28;20206;-50
2023/12/06 12:32:37;;;;;;;92.60;37.90;;;1.30;99.90;;;;;;5054996;28;20198;-53
2023/12/06 12:35:06;;;;;;;97.93;36.73;;;1.30;99.90;;;;;;5061357;28;20565;-50
2023/12/06 12:37:34;;;;;;;97.63;39.53;;;1.30;99.90;;;;;;5026767;28;21010;-50
2023/12/06 12:40:01;;;;;;;89.63;36.70;;;1.30;99.90;;;;;;5045301;28;20265;-50